Time;durP1;ratioP1;P1;durP2;ratioP2;P2;SDS_P1;SDS_P2;PMS_P1;PMS_P2;Temp;Humidity;BMP_temperature;BMP_pressure;BME280_temperature;BME280_humidity;BME280_pressure;Samples;Min_cycle;Max_cycle;Signal;HPM_P1;HPM_P2
2022/11/15 00:01:55;;;;;;;14.80;11.10;;;;;;;;;;6267754;28;20060;-61
2022/11/15 00:04:56;;;;;;;15.30;11.10;;;;;;;;;;6267303;28;20405;-61
2022/11/15 00:07:59;;;;;;;15.70;11.20;;;;;;;;;;6267617;28;20376;-61
2022/11/15 00:11:02;;;;;;;16.70;11.55;;;;;;;;;;6266401;28;20053;-62
2022/11/15 00:14:04;;;;;;;15.40;10.52;;;;;;;;;;6267063;28;20432;-62
2022/11/15 00:17:05;;;;;;;15.15;11.45;;;;;;;;;;6265915;28;20391;-62
2022/11/15 00:20:08;;;;;;;15.25;11.30;;;;;;;;;;6259982;28;20300;-62
2022/11/15 00:23:11;;;;;;;16.77;11.35;;;;;;;;;;6272420;28;20041;-62
2022/11/15 00:26:14;;;;;;;16.90;11.80;;;;;;;;;;6269532;28;20055;-62
2022/11/15 00:29:16;;;;;;;34.78;24.10;;;;;;;;;;6270224;28;20056;-61
2022/11/15 00:32:18;;;;;;;49.63;27.55;;;;;;;;;;6266672;28;20064;-62
2022/11/15 00:35:20;;;;;;;44.72;29.65;;;;;;;;;;6268741;28;20103;-61
2022/11/15 00:38:23;;;;;;;72.00;43.97;;;;;;;;;;6267091;28;20084;-61
2022/11/15 00:41:25;;;;;;;140.70;66.68;;;;;;;;;;6268916;28;20053;-62
2022/11/15 00:44:26;;;;;;;62.42;32.08;;;;;;;;;;6265899;28;20044;-62
2022/11/15 00:47:28;;;;;;;36.42;22.20;;;;;;;;;;6267349;28;20052;-61
2022/11/15 00:50:29;;;;;;;24.42;16.20;;;;;;;;;;6265582;28;20045;-61
2022/11/15 00:53:32;;;;;;;18.73;12.48;;;;;;;;;;6267193;28;20110;-61
2022/11/15 00:56:34;;;;;;;18.88;12.68;;;;;;;;;;6265117;28;20079;-61
2022/11/15 00:59:36;;;;;;;16.58;12.00;;;;;;;;;;6267973;28;20052;-61
2022/11/15 01:02:38;;;;;;;18.58;12.40;;;;;;;;;;6265240;28;20071;-61
2022/11/15 01:05:39;;;;;;;17.38;13.20;;;;;;;;;;6265174;28;20072;-61
2022/11/15 01:08:42;;;;;;;16.75;12.52;;;;;;;;;;6267603;28;20057;-62
2022/11/15 01:11:44;;;;;;;17.13;12.88;;;;;;;;;;6267040;28;20052;-61
2022/11/15 01:14:46;;;;;;;17.60;12.45;;;;;;;;;;6267464;28;20045;-61
2022/11/15 01:17:47;;;;;;;18.02;12.65;;;;;;;;;;6265806;28;20256;-61
2022/11/15 01:20:49;;;;;;;16.60;11.63;;;;;;;;;;6264433;28;20045;-61
2022/11/15 01:23:55;;;;;;;18.63;12.63;;;;;;;;;;6265732;28;20103;-61
2022/11/15 01:26:56;;;;;;;15.80;11.77;;;;;;;;;;6269414;28;20056;-62
2022/11/15 01:29:58;;;;;;;17.55;12.95;;;;;;;;;;6266242;28;20075;-61
2022/11/15 01:33:00;;;;;;;17.48;12.07;;;;;;;;;;6270119;28;20065;-62
2022/11/15 01:36:05;;;;;;;17.33;11.82;;;;;;;;;;6259716;28;20087;-61
2022/11/15 01:39:09;;;;;;;19.67;12.85;;;;;;;;;;6265380;28;20049;-62
2022/11/15 01:42:13;;;;;;;19.80;13.30;;;;;;;;;;6263759;28;20049;-61
2022/11/15 01:45:15;;;;;;;18.27;12.65;;;;;;;;;;6265218;28;20045;-61
2022/11/15 01:48:17;;;;;;;17.23;12.65;;;;;;;;;;6267373;28;20044;-61
2022/11/15 01:51:20;;;;;;;17.10;12.63;;;;;;;;;;6257800;28;20447;-62
2022/11/15 01:54:24;;;;;;;17.80;12.32;;;;;;;;;;6264246;28;20049;-61
2022/11/15 01:57:26;;;;;;;17.70;12.02;;;;;;;;;;6257477;28;20053;-61
2022/11/15 02:00:28;;;;;;;17.60;12.07;;;;;;;;;;6258273;28;20041;-62
2022/11/15 02:03:35;;;;;;;16.88;12.30;;;;;;;;;;6263744;28;20052;-61
2022/11/15 02:06:37;;;;;;;18.20;12.88;;;;;;;;;;6267463;28;20237;-62
2022/11/15 02:09:40;;;;;;;16.35;12.40;;;;;;;;;;6264103;28;20248;-61
2022/11/15 02:12:42;;;;;;;16.98;12.10;;;;;;;;;;6256238;28;20115;-62
2022/11/15 02:15:57;;;;;;;16.10;12.18;;;;;;;;;;6260149;28;20053;-61
2022/11/15 02:19:01;;;;;;;;;;;;;;;;;;6269657;28;20319;-61
2022/11/15 02:22:11;;;;;;;15.65;11.45;;;;;;;;;;6269905;28;20191;-61
2022/11/15 02:25:34;;;;;;;17.05;11.43;;;;;;;;;;6262349;28;20075;-61
2022/11/15 02:28:49;;;;;;;18.80;12.57;;;;;;;;;;6271015;28;20119;-61
2022/11/15 02:31:58;;;;;;;15.38;11.70;;;;;;;;;;6273652;28;20387;-61
2022/11/15 02:35:06;;;;;;;14.07;10.73;;;;;;;;;;6272250;28;20053;-62
2022/11/15 02:38:10;;;;;;;15.40;11.43;;;;;;;;;;6273496;28;20051;-62
2022/11/15 02:41:14;;;;;;;18.45;11.90;;;;;;;;;;6271185;28;20054;-61
2022/11/15 02:44:18;;;;;;;14.85;11.32;;;;;;;;;;6270094;28;20049;-61
2022/11/15 02:47:22;;;;;;;16.10;11.45;;;;;;;;;;6270215;28;20057;-62
2022/11/15 02:50:27;;;;;;;13.80;10.48;;;;;;;;;;6269164;28;20052;-61
2022/11/15 02:53:28;;;;;;;15.30;11.00;;;;;;;;;;6269328;28;20057;-61
2022/11/15 02:56:30;;;;;;;14.43;10.48;;;;;;;;;;6272758;28;20287;-62
2022/11/15 03:00:06;;;;;;;15.05;10.45;;;;;;;;;;6269202;28;20044;-61
2022/11/15 03:03:23;;;;;;;16.80;11.05;;;;;;;;;;6256755;28;20049;-61
2022/11/15 03:06:30;;;;;;;13.75;10.60;;;;;;;;;;6267280;28;20092;-61
2022/11/15 03:09:35;;;;;;;16.20;11.05;;;;;;;;;;6270385;28;20064;-62
2022/11/15 03:12:42;;;;;;;15.10;10.55;;;;;;;;;;6268938;28;20117;-61
2022/11/15 03:15:50;;;;;;;12.45;10.07;;;;;;;;;;6263117;28;20247;-61
2022/11/15 03:18:56;;;;;;;15.98;10.52;;;;;;;;;;6262537;28;20045;-60
2022/11/15 03:21:59;;;;;;;14.65;11.07;;;;;;;;;;6260570;28;20057;-61
2022/11/15 03:25:03;;;;;;;16.73;11.27;;;;;;;;;;6261154;28;20061;-61
2022/11/15 03:28:07;;;;;;;15.93;11.07;;;;;;;;;;6272191;28;20057;-61
2022/11/15 03:34:30;;;;;;;15.88;10.93;;;;;;;;;;6261057;28;20064;-61
2022/11/15 03:37:35;;;;;;;14.13;10.75;;;;;;;;;;6269606;28;20060;-61
2022/11/15 03:40:39;;;;;;;15.20;11.48;;;;;;;;;;6270061;28;20092;-61
2022/11/15 03:43:45;;;;;;;14.75;10.82;;;;;;;;;;6267157;28;20049;-61
2022/11/15 03:46:49;;;;;;;15.02;11.15;;;;;;;;;;6268961;28;20438;-61
2022/11/15 03:49:53;;;;;;;16.02;11.65;;;;;;;;;;6262103;28;20076;-61
2022/11/15 03:52:56;;;;;;;15.32;11.07;;;;;;;;;;6268568;28;20187;-61
2022/11/15 03:55:57;;;;;;;15.02;11.30;;;;;;;;;;6269545;28;20091;-61
2022/11/15 03:58:59;;;;;;;16.50;11.35;;;;;;;;;;6268102;28;20045;-61
2022/11/15 04:02:00;;;;;;;16.70;11.02;;;;;;;;;;6269296;28;20283;-61
2022/11/15 04:05:04;;;;;;;15.38;10.57;;;;;;;;;;6269481;28;20054;-61
2022/11/15 04:08:06;;;;;;;15.02;10.98;;;;;;;;;;6269728;28;20056;-61
2022/11/15 04:11:08;;;;;;;16.33;11.00;;;;;;;;;;6270827;28;20053;-61
2022/11/15 04:14:09;;;;;;;13.50;9.77;;;;;;;;;;6269004;28;20152;-61
2022/11/15 04:17:11;;;;;;;16.08;9.93;;;;;;;;;;6268714;28;21461;-61
2022/11/15 04:27:04;;;;;;;14.77;10.75;;;;;;;;;;6168839;28;20058;-61
2022/11/15 04:30:07;;;;;;;15.18;10.98;;;;;;;;;;6170828;28;20555;-61
2022/11/15 04:33:09;;;;;;;15.20;11.00;;;;;;;;;;6169298;28;20117;-61
2022/11/15 04:39:31;;;;;;;15.20;10.82;;;;;;;;;;6165830;28;20143;-62
2022/11/15 04:42:32;;;;;;;16.33;10.65;;;;;;;;;;6164608;28;20341;-61
2022/11/15 04:45:34;;;;;;;14.70;10.30;;;;;;;;;;6166982;28;20046;-61
2022/11/15 04:48:35;;;;;;;16.40;11.38;;;;;;;;;;6152229;28;20072;-61
2022/11/15 04:51:38;;;;;;;13.75;10.75;;;;;;;;;;6168501;28;20051;-61
2022/11/15 04:54:41;;;;;;;14.35;10.57;;;;;;;;;;6157260;28;20055;-61
2022/11/15 04:57:43;;;;;;;17.70;10.45;;;;;;;;;;6157114;28;20058;-61
2022/11/15 05:00:45;;;;;;;16.33;10.82;;;;;;;;;;6166750;28;20080;-61
2022/11/15 05:07:07;;;;;;;15.73;10.38;;;;;;;;;;6266353;28;20383;-61
2022/11/15 05:10:09;;;;;;;14.13;10.25;;;;;;;;;;6268175;28;20077;-61
2022/11/15 05:13:11;;;;;;;13.88;10.55;;;;;;;;;;6262975;28;20064;-61
2022/11/15 05:16:12;;;;;;;15.20;11.15;;;;;;;;;;6266418;28;20053;-61
2022/11/15 05:19:14;;;;;;;18.42;11.80;;;;;;;;;;6265610;28;20163;-61
2022/11/15 05:22:17;;;;;;;16.20;11.50;;;;;;;;;;6267446;28;20049;-61
2022/11/15 05:25:19;;;;;;;15.98;11.27;;;;;;;;;;6264305;28;20091;-61
2022/11/15 05:28:20;;;;;;;18.08;11.95;;;;;;;;;;6265790;28;20049;-61
2022/11/15 05:31:22;;;;;;;15.13;10.85;;;;;;;;;;6271405;28;20063;-62
2022/11/15 05:34:26;;;;;;;17.55;11.45;;;;;;;;;;6266864;28;20325;-62
2022/11/15 05:37:29;;;;;;;16.75;12.15;;;;;;;;;;6267605;28;20053;-61
2022/11/15 05:40:32;;;;;;;18.27;11.30;;;;;;;;;;6265201;28;20842;-61
2022/11/15 05:43:36;;;;;;;14.05;10.02;;;;;;;;;;6266681;28;20861;-61
2022/11/15 05:46:38;;;;;;;13.68;9.77;;;;;;;;;;6262306;28;20122;-61
2022/11/15 05:49:41;;;;;;;11.63;9.25;;;;;;;;;;6270878;28;20090;-63
2022/11/15 05:52:44;;;;;;;11.82;8.93;;;;;;;;;;6256042;28;20086;-61
2022/11/15 05:55:46;;;;;;;11.05;8.60;;;;;;;;;;6267346;28;20308;-62
2022/11/15 05:58:48;;;;;;;12.35;9.68;;;;;;;;;;6257710;28;20064;-63
2022/11/15 06:01:49;;;;;;;11.60;9.20;;;;;;;;;;6258698;28;20103;-61
2022/11/15 06:04:51;;;;;;;10.13;8.40;;;;;;;;;;6248899;28;20344;-61
2022/11/15 06:07:58;;;;;;;11.13;8.85;;;;;;;;;;6247198;28;20103;-60
2022/11/15 06:11:04;;;;;;;11.48;8.80;;;;;;;;;;6265891;28;20061;-61
2022/11/15 06:14:06;;;;;;;10.80;8.65;;;;;;;;;;6263481;28;20065;-61
2022/11/15 06:17:08;;;;;;;11.05;8.63;;;;;;;;;;6264433;28;20053;-61
2022/11/15 06:20:11;;;;;;;10.93;8.63;;;;;;;;;;6260792;28;20053;-61
2022/11/15 06:23:14;;;;;;;10.43;8.60;;;;;;;;;;6263147;28;20267;-61
2022/11/15 06:26:15;;;;;;;10.70;9.07;;;;;;;;;;6269441;28;20117;-63
2022/11/15 06:29:17;;;;;;;11.45;9.25;;;;;;;;;;6267674;28;20049;-63
2022/11/15 06:32:19;;;;;;;12.02;9.40;;;;;;;;;;6257727;28;20142;-63
2022/11/15 06:35:20;;;;;;;12.63;9.40;;;;;;;;;;6251724;28;20042;-63
2022/11/15 06:38:23;;;;;;;12.88;9.27;;;;;;;;;;6260800;28;20115;-62
2022/11/15 06:41:25;;;;;;;13.00;9.50;;;;;;;;;;6257347;28;20154;-63
2022/11/15 06:44:26;;;;;;;13.18;9.57;;;;;;;;;;6262745;28;20065;-63
2022/11/15 06:47:28;;;;;;;12.20;9.35;;;;;;;;;;6267933;28;20345;-63
2022/11/15 06:50:30;;;;;;;12.45;9.25;;;;;;;;;;6269855;28;21320;-63
2022/11/15 06:53:33;;;;;;;12.57;9.35;;;;;;;;;;6268679;28;20061;-60
2022/11/15 06:56:35;;;;;;;12.87;9.37;;;;;;;;;;6273200;28;20128;-61
2022/11/15 06:59:37;;;;;;;12.48;9.07;;;;;;;;;;6268813;28;20065;-61
2022/11/15 07:02:38;;;;;;;12.52;8.65;;;;;;;;;;6265383;28;20052;-63
2022/11/15 07:05:40;;;;;;;10.80;8.52;;;;;;;;;;6268970;28;20272;-63
2022/11/15 07:08:43;;;;;;;12.82;9.80;;;;;;;;;;6269633;28;20052;-62
2022/11/15 07:11:45;;;;;;;12.73;9.20;;;;;;;;;;6270076;28;20053;-64
2022/11/15 07:14:46;;;;;;;19.25;11.32;;;;;;;;;;6268726;28;20053;-63
2022/11/15 07:17:48;;;;;;;17.60;12.05;;;;;;;;;;6272982;28;20045;-63
2022/11/15 07:20:50;;;;;;;14.35;10.40;;;;;;;;;;6273078;28;20067;-63
2022/11/15 07:23:53;;;;;;;14.45;9.45;;;;;;;;;;6269505;28;20386;-62
2022/11/15 07:26:54;;;;;;;13.73;9.18;;;;;;;;;;6272310;28;20222;-64
2022/11/15 07:29:56;;;;;;;44.67;12.73;;;;;;;;;;6267204;28;20328;-64
2022/11/15 07:32:58;;;;;;;36.63;12.45;;;;;;;;;;6276604;28;20069;-63
2022/11/15 07:36:02;;;;;;;19.95;9.95;;;;;;;;;;6274780;28;20057;-62
2022/11/15 07:39:05;;;;;;;14.77;9.77;;;;;;;;;;6264877;28;20284;-62
2022/11/15 07:45:26;;;;;;;15.30;10.18;;;;;;;;;;6269487;28;20037;-64
2022/11/15 07:48:28;;;;;;;106.00;18.10;;;;;;;;;;6268014;28;20110;-64
2022/11/15 07:51:30;;;;;;;74.38;15.32;;;;;;;;;;6266872;28;20399;-63
2022/11/15 07:54:33;;;;;;;57.22;14.82;;;;;;;;;;6267168;28;20060;-64
2022/11/15 07:57:35;;;;;;;37.17;12.95;;;;;;;;;;6269005;28;20045;-64
2022/11/15 08:00:36;;;;;;;31.58;11.57;;;;;;;;;;6267794;28;20386;-63
2022/11/15 08:03:38;;;;;;;18.40;10.50;;;;;;;;;;6269149;28;20053;-63
2022/11/15 08:06:40;;;;;;;14.55;10.52;;;;;;;;;;6266632;28;20053;-63
2022/11/15 08:09:43;;;;;;;13.30;9.77;;;;;;;;;;6267129;28;20322;-64
2022/11/15 08:12:44;;;;;;;13.07;10.20;;;;;;;;;;6269382;28;20099;-64
2022/11/15 08:15:46;;;;;;;13.50;10.15;;;;;;;;;;6264309;28;20255;-63
2022/11/15 08:18:48;;;;;;;13.68;9.45;;;;;;;;;;6268025;28;20294;-64
2022/11/15 08:21:50;;;;;;;14.77;10.70;;;;;;;;;;6264954;28;20045;-64
2022/11/15 08:24:53;;;;;;;13.05;9.93;;;;;;;;;;6269892;28;20037;-63
2022/11/15 08:27:55;;;;;;;56.95;15.82;;;;;;;;;;6268353;28;20099;-63
2022/11/15 08:30:57;;;;;;;34.20;14.30;;;;;;;;;;6268783;28;20095;-62
2022/11/15 08:33:59;;;;;;;20.30;11.38;;;;;;;;;;6267534;28;20057;-63
2022/11/15 08:37:00;;;;;;;17.55;10.98;;;;;;;;;;6267496;28;20344;-62
2022/11/15 08:40:04;;;;;;;18.77;11.07;;;;;;;;;;6265792;28;20053;-62
2022/11/15 08:43:05;;;;;;;14.40;10.85;;;;;;;;;;6266481;28;20222;-62
2022/11/15 08:46:10;;;;;;;16.20;10.63;;;;;;;;;;6267321;28;20095;-62
2022/11/15 08:49:11;;;;;;;14.20;10.60;;;;;;;;;;6257846;28;20152;-63
2022/11/15 08:52:13;;;;;;;16.40;11.18;;;;;;;;;;6267385;28;20123;-62
2022/11/15 08:55:16;;;;;;;14.77;11.10;;;;;;;;;;6267354;28;20057;-62
2022/11/15 08:58:18;;;;;;;15.20;10.47;;;;;;;;;;6267573;28;20053;-63
2022/11/15 09:01:21;;;;;;;17.55;11.10;;;;;;;;;;6266971;28;20065;-62
2022/11/15 09:04:23;;;;;;;15.57;11.80;;;;;;;;;;6267012;28;20339;-63
2022/11/15 09:07:25;;;;;;;15.40;11.23;;;;;;;;;;6268881;28;20048;-63
2022/11/15 09:10:28;;;;;;;13.82;10.85;;;;;;;;;;6258085;28;20118;-62
2022/11/15 09:13:29;;;;;;;14.48;11.40;;;;;;;;;;6265762;28;20114;-63
2022/11/15 09:16:31;;;;;;;13.70;10.98;;;;;;;;;;6264289;28;20044;-63
2022/11/15 09:19:33;;;;;;;16.38;10.95;;;;;;;;;;6266292;28;20245;-62
2022/11/15 09:22:36;;;;;;;14.48;10.75;;;;;;;;;;6265078;28;20122;-63
2022/11/15 09:25:39;;;;;;;14.93;10.88;;;;;;;;;;6266089;28;20384;-63
2022/11/15 09:28:42;;;;;;;15.85;11.07;;;;;;;;;;6266294;28;20280;-63
2022/11/15 09:31:43;;;;;;;15.02;10.68;;;;;;;;;;6268473;28;20297;-62
2022/11/15 09:34:45;;;;;;;15.27;11.10;;;;;;;;;;6267262;28;20471;-63
2022/11/15 09:37:47;;;;;;;15.82;10.55;;;;;;;;;;6265158;28;20053;-64
2022/11/15 09:41:08;;;;;;;13.02;9.65;;;;;;;;;;6265198;28;20055;-63
2022/11/15 09:44:24;;;;;;;14.15;10.35;;;;;;;;;;6265542;28;20053;-63
2022/11/15 09:47:38;;;;;;;12.73;9.25;;;;;;;;;;6268824;28;20336;-63
2022/11/15 09:50:42;;;;;;;12.55;9.68;;;;;;;;;;6266547;28;20083;-63
2022/11/15 09:53:50;;;;;;;12.82;10.00;;;;;;;;;;6270238;28;20268;-64
2022/11/15 09:56:53;;;;;;;11.82;8.88;;;;;;;;;;6265133;28;20080;-63
2022/11/15 10:00:05;;;;;;;15.57;11.03;;;;;;;;;;6263047;28;20276;-63
2022/11/15 10:03:13;;;;;;;12.38;9.20;;;;;;;;;;6266547;28;20148;-63
2022/11/15 10:06:22;;;;;;;9.90;7.55;;;;;;;;;;6267874;28;21113;-63
2022/11/15 10:09:27;;;;;;;10.88;8.02;;;;;;;;;;6266331;28;20452;-63
2022/11/15 10:12:29;;;;;;;;;;;;;;;;;;6264496;28;20060;-63
2022/11/15 10:15:31;;;;;;;13.45;7.15;;;;;;;;;;6264629;28;20021;-63
2022/11/15 10:18:36;;;;;;;10.45;7.60;;;;;;;;;;6263303;28;20049;-63
2022/11/15 10:21:44;;;;;;;10.43;7.55;;;;;;;;;;6263263;28;20045;-64
2022/11/15 10:24:47;;;;;;;11.27;8.45;;;;;;;;;;6266356;28;20049;-61
2022/11/15 10:27:55;;;;;;;10.57;7.75;;;;;;;;;;6259719;28;20400;-62
2022/11/15 10:30:58;;;;;;;11.40;7.60;;;;;;;;;;6265968;28;20119;-62
2022/11/15 10:34:11;;;;;;;12.27;7.97;;;;;;;;;;6265421;28;20060;-63
2022/11/15 10:37:12;;;;;;;10.07;7.82;;;;;;;;;;6272684;28;20077;-64
2022/11/15 10:40:18;;;;;;;10.48;7.80;;;;;;;;;;6274465;28;20118;-61
2022/11/15 10:43:21;;;;;;;11.25;8.18;;;;;;;;;;6277346;28;20114;-62
2022/11/15 10:46:25;;;;;;;11.73;8.10;;;;;;;;;;6275284;28;20165;-62
2022/11/15 10:49:28;;;;;;;12.82;8.23;;;;;;;;;;6275302;28;20099;-62
2022/11/15 10:52:31;;;;;;;15.82;8.88;;;;;;;;;;6273117;28;20049;-64
2022/11/15 10:55:34;;;;;;;10.25;8.15;;;;;;;;;;6276325;28;20056;-64
2022/11/15 10:58:39;;;;;;;14.00;9.75;;;;;;;;;;6267179;28;20065;-64
2022/11/15 11:01:47;;;;;;;15.10;9.73;;;;;;;;;;6273700;28;20098;-64
2022/11/15 11:04:52;;;;;;;13.18;9.98;;;;;;;;;;6267148;28;20045;-63
2022/11/15 11:07:57;;;;;;;14.30;9.73;;;;;;;;;;6266798;28;20053;-63
2022/11/15 11:11:00;;;;;;;13.68;9.93;;;;;;;;;;6268092;28;20108;-63
2022/11/15 11:14:12;;;;;;;18.70;10.73;;;;;;;;;;6268204;28;20099;-63
2022/11/15 11:17:19;;;;;;;14.25;10.77;;;;;;;;;;6269022;28;20056;-63
2022/11/15 11:20:24;;;;;;;12.80;10.57;;;;;;;;;;6268221;28;20099;-63
2022/11/15 11:23:39;;;;;;;15.82;10.93;;;;;;;;;;6268654;28;20111;-63
2022/11/15 11:26:45;;;;;;;15.40;10.82;;;;;;;;;;6267869;28;20107;-63
2022/11/15 11:30:00;;;;;;;15.10;11.02;;;;;;;;;;6268587;28;20057;-64
2022/11/15 11:33:11;;;;;;;15.88;12.32;;;;;;;;;;6269501;28;20335;-64
2022/11/15 11:36:21;;;;;;;15.82;11.55;;;;;;;;;;6265290;28;20057;-63
2022/11/15 11:39:31;;;;;;;16.27;11.32;;;;;;;;;;6264473;28;20050;-63
2022/11/15 11:42:40;;;;;;;18.75;12.25;;;;;;;;;;6266904;28;20352;-63
2022/11/15 11:45:56;;;;;;;16.27;12.07;;;;;;;;;;6266975;28;20048;-63
2022/11/15 11:49:02;;;;;;;18.48;12.25;;;;;;;;;;6271786;28;20045;-64
2022/11/15 11:52:10;;;;;;;18.63;12.73;;;;;;;;;;6265065;28;20238;-63
2022/11/15 11:55:16;;;;;;;18.20;12.82;;;;;;;;;;6267739;28;20071;-63
2022/11/15 11:58:20;;;;;;;16.85;12.27;;;;;;;;;;6265780;28;20404;-63
2022/11/15 12:01:27;;;;;;;18.30;13.65;;;;;;;;;;6268758;28;20067;-63
2022/11/15 12:04:31;;;;;;;16.73;12.90;;;;;;;;;;6268047;28;20124;-63
2022/11/15 12:07:35;;;;;;;18.95;13.35;;;;;;;;;;6269311;28;20048;-64
2022/11/15 12:10:37;;;;;;;17.67;12.87;;;;;;;;;;6259339;28;20045;-64
2022/11/15 12:13:39;;;;;;;22.08;14.70;;;;;;;;;;6269998;28;20076;-63
2022/11/15 12:16:43;;;;;;;19.70;13.88;;;;;;;;;;6269276;28;20057;-63
2022/11/15 12:19:44;;;;;;;24.63;14.55;;;;;;;;;;6268390;28;20056;-63
2022/11/15 12:22:53;;;;;;;24.10;15.15;;;;;;;;;;6267472;28;20053;-63
2022/11/15 12:25:57;;;;;;;22.27;15.38;;;;;;;;;;6268129;28;20183;-63
2022/11/15 12:29:01;;;;;;;20.85;13.70;;;;;;;;;;6268059;28;20099;-63
2022/11/15 12:32:04;;;;;;;;;;;;;;;;;;6269872;28;20104;-64
2022/11/15 12:35:20;;;;;;;19.67;14.73;;;;;;;;;;6265164;28;20275;-63
2022/11/15 12:38:56;;;;;;;22.60;14.55;;;;;;;;;;6266859;28;20387;-64
2022/11/15 12:42:31;;;;;;;18.45;13.18;;;;;;;;;;6267356;28;20049;-63
2022/11/15 12:45:33;;;;;;;;;;;;;;;;;;6269118;28;20232;-63
2022/11/15 12:49:00;;;;;;;16.50;12.18;;;;;;;;;;6264778;28;20246;-63
2022/11/15 12:52:06;;;;;;;17.15;11.52;;;;;;;;;;6266626;28;20398;-64
2022/11/15 12:55:30;;;;;;;16.85;12.07;;;;;;;;;;6265494;28;20049;-63
2022/11/15 12:58:42;;;;;;;17.52;12.65;;;;;;;;;;6260401;28;20057;-63
2022/11/15 13:01:59;;;;;;;16.23;12.50;;;;;;;;;;6264095;28;20045;-63
2022/11/15 13:05:46;;;;;;;17.55;12.77;;;;;;;;;;6263360;28;20253;-63
2022/11/15 13:08:51;;;;;;;16.10;11.80;;;;;;;;;;6167726;28;20061;-63
2022/11/15 13:11:52;;;;;;;16.55;12.13;;;;;;;;;;6168100;28;20089;-63
2022/11/15 13:14:55;;;;;;;16.73;12.00;;;;;;;;;;6170788;28;20402;-63
2022/11/15 13:17:57;;;;;;;16.13;11.25;;;;;;;;;;6164702;28;20055;-63
2022/11/15 13:20:59;;;;;;;18.63;12.95;;;;;;;;;;6170390;28;20066;-63
2022/11/15 13:24:02;;;;;;;15.45;11.05;;;;;;;;;;6167581;28;20058;-63
2022/11/15 13:27:11;;;;;;;15.88;11.40;;;;;;;;;;6169244;28;20046;-63
2022/11/15 13:30:20;;;;;;;15.57;10.02;;;;;;;;;;6167114;28;20054;-63
2022/11/15 13:33:24;;;;;;;12.75;9.40;;;;;;;;;;6166747;28;20351;-64
2022/11/15 13:36:28;;;;;;;12.73;9.43;;;;;;;;;;6167051;28;20119;-63
2022/11/15 13:39:33;;;;;;;12.27;9.30;;;;;;;;;;6166641;28;20070;-63
2022/11/15 13:42:34;;;;;;;13.13;9.70;;;;;;;;;;6166650;28;20165;-62
2022/11/15 13:45:36;;;;;;;12.18;9.35;;;;;;;;;;6253739;28;20353;-64
2022/11/15 13:48:38;;;;;;;18.05;11.52;;;;;;;;;;6265155;28;20048;-64
2022/11/15 13:51:44;;;;;;;13.35;9.85;;;;;;;;;;6265073;28;20048;-65
2022/11/15 13:54:51;;;;;;;13.85;9.63;;;;;;;;;;6264951;28;20095;-67
2022/11/15 13:57:55;;;;;;;10.32;7.80;;;;;;;;;;6262505;28;20266;-66
2022/11/15 14:01:01;;;;;;;13.18;7.47;;;;;;;;;;6266071;28;20305;-65
2022/11/15 14:04:04;;;;;;;8.63;6.30;;;;;;;;;;6267162;28;20155;-65
2022/11/15 14:07:05;;;;;;;8.50;6.55;;;;;;;;;;6266824;28;20052;-65
2022/11/15 14:10:27;;;;;;;8.15;6.32;;;;;;;;;;6266609;28;20068;-65
2022/11/15 14:13:31;;;;;;;8.70;6.82;;;;;;;;;;6266973;28;20060;-63
2022/11/15 14:16:35;;;;;;;9.75;7.63;;;;;;;;;;6259576;28;20244;-63
2022/11/15 14:19:39;;;;;;;11.70;8.13;;;;;;;;;;6263435;28;20128;-65
2022/11/15 14:22:52;;;;;;;10.45;7.22;;;;;;;;;;6264025;28;20380;-64
2022/11/15 14:25:56;;;;;;;9.82;7.25;;;;;;;;;;6265957;28;20052;-64
2022/11/15 14:28:58;;;;;;;;;;;;;;;;;;6266628;28;20041;-63
2022/11/15 14:32:13;;;;;;;10.07;7.03;;;;;;;;;;6265149;28;19925;-64
2022/11/15 14:35:17;;;;;;;9.60;6.60;;;;;;;;;;6252772;28;20276;-64
2022/11/15 14:38:19;;;;;;;10.02;6.93;;;;;;;;;;6265069;28;20045;-65
2022/11/15 14:41:24;;;;;;;9.65;6.90;;;;;;;;;;6267029;28;20060;-65
2022/11/15 14:44:25;;;;;;;8.55;6.35;;;;;;;;;;6264732;28;20057;-65
2022/11/15 14:47:27;;;;;;;9.35;7.00;;;;;;;;;;6266984;28;20072;-65
2022/11/15 14:50:29;;;;;;;11.18;7.47;;;;;;;;;;6265144;28;20053;-66
2022/11/15 14:53:30;;;;;;;9.68;6.63;;;;;;;;;;6265299;28;20053;-66
2022/11/15 14:56:33;;;;;;;7.75;6.20;;;;;;;;;;6265251;28;20317;-64
2022/11/15 14:59:35;;;;;;;7.60;5.72;;;;;;;;;;6267051;28;20427;-65
2022/11/15 15:02:37;;;;;;;7.45;5.90;;;;;;;;;;6263830;28;20064;-65
2022/11/15 15:05:40;;;;;;;7.57;5.80;;;;;;;;;;6264711;28;20276;-64
2022/11/15 15:08:42;;;;;;;8.03;6.57;;;;;;;;;;6262347;28;20056;-64
2022/11/15 15:11:45;;;;;;;10.20;7.82;;;;;;;;;;6260343;28;20478;-64
2022/11/15 15:14:48;;;;;;;10.75;7.75;;;;;;;;;;6264413;28;20057;-66
2022/11/15 15:17:50;;;;;;;9.07;6.50;;;;;;;;;;6262408;28;20056;-65
2022/11/15 15:20:57;;;;;;;8.90;5.78;;;;;;;;;;6263064;28;20072;-65
2022/11/15 15:23:58;;;;;;;7.35;5.70;;;;;;;;;;6259800;28;20347;-66
2022/11/15 15:27:01;;;;;;;13.38;6.30;;;;;;;;;;6266026;28;20045;-64
2022/11/15 15:30:03;;;;;;;6.78;5.05;;;;;;;;;;6262755;28;20092;-64
2022/11/15 15:33:06;;;;;;;6.53;5.07;;;;;;;;;;6262002;28;20062;-66
2022/11/15 15:36:10;;;;;;;5.72;4.85;;;;;;;;;;6255591;28;20266;-64
2022/11/15 15:39:12;;;;;;;6.78;4.85;;;;;;;;;;6260053;28;20053;-64
2022/11/15 15:42:15;;;;;;;6.30;4.90;;;;;;;;;;6271230;28;20049;-62
2022/11/15 15:45:18;;;;;;;7.78;5.30;;;;;;;;;;6270943;28;20221;-64
2022/11/15 15:48:19;;;;;;;7.75;5.97;;;;;;;;;;6268103;28;20348;-66
2022/11/15 15:51:21;;;;;;;6.50;4.97;;;;;;;;;;6270775;28;20118;-63
2022/11/15 15:54:22;;;;;;;7.78;5.63;;;;;;;;;;6267710;28;20464;-65
2022/11/15 15:57:25;;;;;;;6.88;5.50;;;;;;;;;;6265142;28;20110;-65
2022/11/15 16:00:27;;;;;;;7.65;5.72;;;;;;;;;;6267881;28;20277;-62
2022/11/15 16:03:29;;;;;;;6.72;5.50;;;;;;;;;;6261925;28;20054;-64
2022/11/15 16:06:36;;;;;;;7.30;5.68;;;;;;;;;;6267779;28;20060;-64
2022/11/15 16:12:58;;;;;;;7.53;5.60;;;;;;;;;;6262867;28;20057;-64
2022/11/15 16:16:01;;;;;;;8.20;6.00;;;;;;;;;;6264817;28;20065;-67
2022/11/15 16:19:03;;;;;;;6.75;5.75;;;;;;;;;;6265720;28;20040;-65
2022/11/15 16:22:04;;;;;;;8.60;6.75;;;;;;;;;;6263371;28;20094;-62
2022/11/15 16:25:06;;;;;;;7.40;5.82;;;;;;;;;;6264074;28;20355;-65
2022/11/15 16:28:17;;;;;;;8.90;6.30;;;;;;;;;;6265884;28;20622;-66
2022/11/15 16:31:21;;;;;;;8.95;6.78;;;;;;;;;;6272648;28;20057;-65
2022/11/15 16:34:24;;;;;;;7.65;6.22;;;;;;;;;;6262956;28;20685;-64
2022/11/15 16:37:25;;;;;;;8.95;7.00;;;;;;;;;;6263663;28;20103;-65
2022/11/15 16:40:29;;;;;;;9.77;6.97;;;;;;;;;;6266353;28;20052;-63
2022/11/15 16:43:33;;;;;;;9.50;7.15;;;;;;;;;;6268057;28;20559;-63
2022/11/15 16:46:34;;;;;;;10.15;7.47;;;;;;;;;;6265375;28;20344;-64
2022/11/15 16:49:36;;;;;;;9.35;7.30;;;;;;;;;;6267560;28;20052;-64
2022/11/15 16:52:37;;;;;;;10.00;7.18;;;;;;;;;;6266291;28;20095;-63
2022/11/15 16:55:40;;;;;;;10.32;7.68;;;;;;;;;;6266945;28;20053;-64
2022/11/15 16:58:43;;;;;;;11.63;8.40;;;;;;;;;;6265613;28;20159;-65
2022/11/15 17:01:50;;;;;;;10.70;7.78;;;;;;;;;;6266392;28;20048;-64
2022/11/15 17:04:52;;;;;;;10.57;8.13;;;;;;;;;;6266013;28;20041;-65
2022/11/15 17:07:53;;;;;;;11.27;7.57;;;;;;;;;;6268262;28;20053;-64
2022/11/15 17:10:55;;;;;;;10.80;8.07;;;;;;;;;;6259446;28;20111;-64
2022/11/15 17:13:59;;;;;;;10.40;7.25;;;;;;;;;;6259251;28;20064;-63
2022/11/15 17:17:01;;;;;;;10.23;7.80;;;;;;;;;;6262895;28;20218;-63
2022/11/15 17:20:03;;;;;;;11.00;8.07;;;;;;;;;;6262972;28;20050;-64
2022/11/15 17:23:10;;;;;;;10.60;7.85;;;;;;;;;;6267912;28;20057;-63
2022/11/15 17:26:13;;;;;;;11.32;7.93;;;;;;;;;;6265450;28;20060;-63
2022/11/15 17:29:17;;;;;;;11.48;8.13;;;;;;;;;;6268222;28;20087;-63
2022/11/15 17:32:18;;;;;;;10.70;7.63;;;;;;;;;;6264686;28;20091;-63
2022/11/15 17:35:20;;;;;;;8.98;6.90;;;;;;;;;;6264735;28;20044;-62
2022/11/15 17:38:22;;;;;;;9.02;6.82;;;;;;;;;;6266388;28;20061;-63
2022/11/15 17:41:23;;;;;;;8.45;6.82;;;;;;;;;;6263639;28;20246;-63
2022/11/15 17:44:27;;;;;;;10.45;6.57;;;;;;;;;;6263114;28;20570;-62
2022/11/15 17:47:28;;;;;;;10.63;7.07;;;;;;;;;;6267549;28;20056;-62
2022/11/15 17:50:30;;;;;;;10.00;7.35;;;;;;;;;;6263760;28;20045;-63
2022/11/15 17:53:33;;;;;;;10.38;7.93;;;;;;;;;;6263175;28;20329;-62
2022/11/15 17:56:38;;;;;;;9.73;7.25;;;;;;;;;;6265444;28;20244;-62
2022/11/15 17:59:41;;;;;;;10.55;7.95;;;;;;;;;;6267284;28;20061;-63
2022/11/15 18:02:43;;;;;;;10.63;7.63;;;;;;;;;;6263738;28;20111;-63
2022/11/15 18:05:44;;;;;;;8.35;7.25;;;;;;;;;;6263082;28;20061;-63
2022/11/15 18:08:48;;;;;;;7.80;6.05;;;;;;;;;;6264386;28;20041;-63
2022/11/15 18:11:50;;;;;;;8.57;7.03;;;;;;;;;;6266681;28;20057;-63
2022/11/15 18:14:53;;;;;;;8.23;6.53;;;;;;;;;;6261772;28;20266;-63
2022/11/15 18:17:55;;;;;;;8.48;6.63;;;;;;;;;;6264627;28;20057;-63
2022/11/15 18:21:04;;;;;;;9.02;6.82;;;;;;;;;;6265166;28;20111;-63
2022/11/15 18:24:06;;;;;;;8.05;6.70;;;;;;;;;;6265451;28;20061;-63
2022/11/15 18:27:08;;;;;;;7.85;5.97;;;;;;;;;;6264519;28;20057;-62